Time;durP1;ratioP1;P1;durP2;ratioP2;P2;SDS_P1;SDS_P2;PMS_P1;PMS_P2;Temp;Humidity;BMP_temperature;BMP_pressure;BME280_temperature;BME280_humidity;BME280_pressure;Samples;Min_cycle;Max_cycle;Signal;HPM_P1;HPM_P2
2021/04/28 04:02:25;;;;;;;9.60;7.33;;;9.30;82.70;;;;;;5068025;23;20991;-63
2021/04/28 04:04:51;;;;;;;9.30;7.73;;;9.40;85.20;;;;;;4978525;28;20501;-63
2021/04/28 04:07:17;;;;;;;8.80;7.57;;;9.40;83.90;;;;;;4978470;28;20446;-64
2021/04/28 04:09:43;;;;;;;7.50;6.70;;;9.40;83.60;;;;;;4978107;28;20486;-64
2021/04/28 04:12:10;;;;;;;8.63;7.63;;;9.40;84.60;;;;;;4978075;28;20474;-65
2021/04/28 04:14:36;;;;;;;7.47;6.53;;;9.50;84.90;;;;;;4978299;28;20455;-64
2021/04/28 04:17:02;;;;;;;12.47;8.60;;;9.50;85.70;;;;;;4978006;28;20481;-64
2021/04/28 04:19:29;;;;;;;7.70;7.00;;;9.50;86.20;;;;;;4979189;28;20794;-64
2021/04/28 04:21:55;;;;;;;8.20;6.90;;;9.50;84.80;;;;;;4977843;28;20514;-65
2021/04/28 04:24:22;;;;;;;8.10;7.30;;;9.40;84.30;;;;;;4977928;28;21016;-64
2021/04/28 04:26:48;;;;;;;7.97;7.20;;;9.40;84.60;;;;;;4977183;28;20454;-64
2021/04/28 04:29:14;;;;;;;9.70;7.17;;;9.40;84.50;;;;;;4976598;28;20461;-64
2021/04/28 04:31:40;;;;;;;8.30;7.43;;;9.50;85.00;;;;;;4977073;28;20476;-64
2021/04/28 04:34:06;;;;;;;8.27;7.40;;;9.50;86.20;;;;;;4977016;28;20537;-64
2021/04/28 04:36:33;;;;;;;9.30;7.60;;;9.50;86.40;;;;;;4976746;28;20987;-63
2021/04/28 04:39:00;;;;;;;8.47;6.83;;;9.50;86.20;;;;;;4976737;28;20462;-65
2021/04/28 04:41:26;;;;;;;7.63;6.90;;;9.50;86.60;;;;;;4976781;28;20479;-64
2021/04/28 04:43:52;;;;;;;9.43;7.30;;;9.60;87.30;;;;;;4976747;28;20865;-64
2021/04/28 04:46:19;;;;;;;8.40;7.10;;;9.60;88.40;;;;;;4976898;28;20451;-64
2021/04/28 04:48:45;;;;;;;7.53;6.87;;;9.60;88.40;;;;;;4976835;28;20458;-64
2021/04/28 04:51:11;;;;;;;8.40;7.60;;;9.60;89.80;;;;;;4977042;28;21051;-63
2021/04/28 04:53:38;;;;;;;7.23;6.23;;;9.60;95.60;;;;;;4977178;28;20451;-63
2021/04/28 04:56:05;;;;;;;13.00;8.63;;;9.80;99.90;;;;;;4976642;28;20458;-63
2021/04/28 04:58:31;;;;;;;8.07;7.13;;;9.90;99.90;;;;;;4976780;28;20486;-64
2021/04/28 05:00:57;;;;;;;8.57;7.47;;;10.10;99.90;;;;;;4976589;28;20478;-63
2021/04/28 05:03:23;;;;;;;11.10;8.57;;;10.10;98.50;;;;;;4976654;28;20459;-63
2021/04/28 05:05:49;;;;;;;13.93;7.60;;;10.10;99.90;;;;;;4976152;28;20508;-64
2021/04/28 05:08:16;;;;;;;10.20;8.60;;;10.00;97.50;;;;;;4977236;28;20451;-62
2021/04/28 05:10:43;;;;;;;8.23;7.20;;;10.00;99.90;;;;;;4976801;28;20481;-63
2021/04/28 05:13:09;;;;;;;10.80;6.77;;;10.30;99.90;;;;;;4977191;28;20451;-63
2021/04/28 05:15:35;;;;;;;9.70;8.00;;;10.50;99.90;;;;;;4976335;28;20454;-63
2021/04/28 05:18:02;;;;;;;11.63;7.70;;;10.50;99.30;;;;;;4976992;28;20493;-63
2021/04/28 05:20:28;;;;;;;8.70;7.90;;;10.60;99.90;;;;;;4976383;28;20455;-64
2021/04/28 05:22:54;;;;;;;12.43;9.10;;;10.60;99.90;;;;;;4976420;28;20451;-63
2021/04/28 05:25:21;;;;;;;10.17;9.27;;;10.60;99.80;;;;;;4976947;28;20509;-63
2021/04/28 05:27:48;;;;;;;12.20;9.67;;;10.70;99.90;;;;;;4976398;28;20446;-63
2021/04/28 05:30:15;;;;;;;10.00;8.90;;;10.80;99.90;;;;;;4975983;28;20949;-63
2021/04/28 05:32:41;;;;;;;9.10;8.17;;;10.90;96.30;;;;;;4976611;28;20454;-63
2021/04/28 05:35:09;;;;;;;11.40;9.70;;;11.00;97.20;;;;;;4976398;28;20498;-64
2021/04/28 05:37:35;;;;;;;13.73;10.53;;;11.20;95.50;;;;;;4976492;28;21000;-63
2021/04/28 05:40:01;;;;;;;11.87;9.03;;;11.50;94.10;;;;;;4977432;28;20965;-63
2021/04/28 05:42:27;;;;;;;10.40;9.30;;;11.80;91.50;;;;;;4977893;28;20482;-63
2021/04/28 05:44:54;;;;;;;11.60;9.50;;;12.20;91.10;;;;;;4978433;28;20517;-63
2021/04/28 05:47:20;;;;;;;15.23;9.67;;;12.60;89.70;;;;;;4977808;28;20454;-63
2021/04/28 05:49:47;;;;;;;13.23;10.47;;;12.90;87.90;;;;;;4976903;28;20869;-63
2021/04/28 05:52:13;;;;;;;11.93;10.73;;;13.10;91.00;;;;;;4977376;28;20474;-64
2021/04/28 05:54:39;;;;;;;14.07;11.90;;;13.50;86.30;;;;;;4980273;28;20454;-64
2021/04/28 05:57:06;;;;;;;13.33;12.03;;;13.50;79.50;;;;;;4984684;28;20467;-64
2021/04/28 05:59:32;;;;;;;12.03;10.93;;;13.80;79.00;;;;;;4999755;28;20451;-64
2021/04/28 06:01:59;;;;;;;12.90;11.57;;;14.20;77.70;;;;;;4999328;28;20482;-64
2021/04/28 06:04:25;;;;;;;15.47;11.70;;;14.40;75.60;;;;;;4999736;28;20435;-65
2021/04/28 06:06:51;;;;;;;13.57;11.23;;;14.40;75.30;;;;;;4991127;28;20477;-64
2021/04/28 06:09:17;;;;;;;20.30;12.10;;;14.40;75.90;;;;;;4976477;28;20455;-64
2021/04/28 06:11:44;;;;;;;16.87;13.50;;;14.60;75.00;;;;;;4976760;28;20505;-63
2021/04/28 06:14:10;;;;;;;12.73;11.53;;;14.90;74.10;;;;;;4976841;28;20465;-61
2021/04/28 06:16:37;;;;;;;14.40;12.17;;;15.00;73.90;;;;;;4982566;28;20482;-63
2021/04/28 06:19:05;;;;;;;13.87;11.93;;;15.00;72.50;;;;;;4994843;28;20439;-62
2021/04/28 06:21:31;;;;;;;15.73;12.13;;;15.40;76.20;;;;;;4999635;28;20454;-63
2021/04/28 06:23:58;;;;;;;16.20;12.70;;;15.80;74.80;;;;;;4990143;28;20446;-63
2021/04/28 06:26:24;;;;;;;13.70;12.30;;;16.20;72.50;;;;;;4981201;28;20574;-63
2021/04/28 06:28:50;;;;;;;14.13;11.50;;;16.60;71.50;;;;;;4980301;28;20458;-63
2021/04/28 06:31:16;;;;;;;14.90;13.37;;;16.70;69.20;;;;;;4985542;28;20481;-63
2021/04/28 06:33:43;;;;;;;17.60;12.20;;;17.20;69.50;;;;;;4984798;28;20881;-62
2021/04/28 06:36:11;;;;;;;11.20;10.20;;;17.70;68.20;;;;;;4981428;28;20455;-62
2021/04/28 06:38:37;;;;;;;11.77;10.60;;;18.30;70.40;;;;;;4981735;28;20552;-62
2021/04/28 06:41:04;;;;;;;13.93;12.53;;;19.00;67.30;;;;;;4981864;28;20478;-62
2021/04/28 06:43:30;;;;;;;11.70;9.97;;;19.30;60.60;;;;;;4985512;28;20462;-63
2021/04/28 06:45:57;;;;;;;12.37;11.17;;;19.80;62.70;;;;;;4994869;28;20514;-63
2021/04/28 06:48:23;;;;;;;15.70;11.60;;;20.10;59.40;;;;;;4979689;28;20455;-64
2021/04/28 06:50:50;;;;;;;15.23;11.47;;;20.20;58.20;;;;;;4978682;28;20502;-62
2021/04/28 06:53:17;;;;;;;13.00;11.33;;;19.90;57.10;;;;;;4979042;28;20462;-62
2021/04/28 06:55:43;;;;;;;19.00;11.30;;;20.00;58.00;;;;;;4979212;28;20459;-63
2021/04/28 06:58:09;;;;;;;12.33;11.13;;;20.40;57.30;;;;;;4979187;28;20533;-63
2021/04/28 07:00:36;;;;;;;13.70;11.93;;;20.50;56.80;;;;;;4978877;28;20490;-64
2021/04/28 07:03:02;;;;;;;11.77;10.70;;;20.70;57.50;;;;;;4979396;28;20443;-63
2021/04/28 07:05:28;;;;;;;12.60;11.30;;;20.50;57.30;;;;;;4979208;28;20454;-63
2021/04/28 07:07:55;;;;;;;14.03;11.93;;;20.80;57.40;;;;;;4981559;28;20462;-65
2021/04/28 07:10:23;;;;;;;11.73;10.50;;;20.80;55.60;;;;;;4980080;28;20459;-64
2021/04/28 07:12:49;;;;;;;14.00;11.30;;;21.10;55.40;;;;;;4980098;28;20822;-64
2021/04/28 07:15:15;;;;;;;14.93;12.30;;;21.30;55.00;;;;;;4978797;28;20458;-64
2021/04/28 07:17:44;;;;;;;12.90;11.63;;;21.20;54.70;;;;;;4978614;28;20474;-65
2021/04/28 07:20:11;;;;;;;13.53;11.33;;;21.20;54.50;;;;;;4979228;28;20455;-64
2021/04/28 07:22:37;;;;;;;14.00;11.63;;;21.50;54.70;;;;;;4978163;28;20463;-65
2021/04/28 07:25:04;;;;;;;15.97;11.60;;;21.80;55.50;;;;;;4982408;28;20450;-65
2021/04/28 07:27:31;;;;;;;12.53;11.30;;;22.20;54.60;;;;;;5000004;28;20473;-65
2021/04/28 07:29:57;;;;;;;15.23;11.83;;;22.40;53.90;;;;;;4985408;28;20451;-65
2021/04/28 07:32:24;;;;;;;13.43;12.13;;;23.00;53.50;;;;;;4978142;28;20537;-65
2021/04/28 07:34:50;;;;;;;13.20;11.93;;;23.20;52.70;;;;;;4977778;28;20466;-65
2021/04/28 07:37:16;;;;;;;14.77;11.60;;;23.20;51.00;;;;;;4978128;28;20474;-64
2021/04/28 07:39:43;;;;;;;12.67;11.50;;;23.00;51.10;;;;;;4978343;28;20485;-64
2021/04/28 07:42:09;;;;;;;12.80;11.60;;;23.00;51.20;;;;;;4978398;28;21004;-64
2021/04/28 07:44:37;;;;;;;15.00;12.37;;;23.20;52.30;;;;;;4978100;28;20550;-64
2021/04/28 07:47:03;;;;;;;13.00;11.63;;;23.70;51.60;;;;;;4979933;28;20501;-64
2021/04/28 07:49:29;;;;;;;13.67;12.47;;;24.00;50.50;;;;;;4983799;28;20871;-64
2021/04/28 07:51:56;;;;;;;13.67;12.30;;;24.20;50.70;;;;;;4986085;28;20485;-64
2021/04/28 07:54:24;;;;;;;17.63;13.33;;;24.10;49.30;;;;;;4980844;28;20470;-64
2021/04/28 07:56:51;;;;;;;14.00;12.80;;;24.20;50.30;;;;;;4978736;28;20482;-64
2021/04/28 07:59:17;;;;;;;13.63;12.40;;;24.20;49.00;;;;;;4979324;28;20486;-65
2021/04/28 08:01:44;;;;;;;13.90;11.97;;;24.20;49.60;;;;;;4978370;28;20597;-64
2021/04/28 08:04:10;;;;;;;15.10;12.20;;;24.30;49.00;;;;;;4978136;28;20973;-64
2021/04/28 08:06:36;;;;;;;13.07;11.77;;;24.50;50.00;;;;;;4977343;28;20949;-64
2021/04/28 08:09:04;;;;;;;14.17;11.83;;;24.90;49.70;;;;;;4977255;28;20459;-64
2021/04/28 08:11:31;;;;;;;14.40;12.97;;;25.10;48.60;;;;;;4977018;28;20859;-65
2021/04/28 08:13:57;;;;;;;15.40;13.70;;;25.00;48.60;;;;;;4977547;28;20460;-65
2021/04/28 08:16:24;;;;;;;14.03;12.73;;;25.20;47.80;;;;;;4977371;28;20944;-65
2021/04/28 08:18:51;;;;;;;16.37;11.67;;;25.10;49.30;;;;;;4984972;28;20497;-65
2021/04/28 08:21:18;;;;;;;12.43;11.33;;;25.40;48.50;;;;;;4979287;28;20489;-65
2021/04/28 08:23:44;;;;;;;15.17;13.57;;;25.60;48.70;;;;;;4982046;28;20457;-65
2021/04/28 08:26:12;;;;;;;14.00;11.70;;;25.90;47.70;;;;;;4984882;28;20609;-65
2021/04/28 08:28:40;;;;;;;14.83;12.40;;;26.10;47.90;;;;;;4978038;28;20454;-64
2021/04/28 08:31:08;;;;;;;14.77;13.27;;;26.40;48.60;;;;;;4977365;28;20547;-63
2021/04/28 08:33:35;;;;;;;16.73;12.40;;;26.60;47.00;;;;;;4977215;28;20505;-64
2021/04/28 08:36:02;;;;;;;16.67;13.40;;;26.70;46.90;;;;;;4977025;28;20458;-64
2021/04/28 08:38:28;;;;;;;19.90;12.97;;;26.90;46.20;;;;;;4976786;28;20482;-64
2021/04/28 08:40:55;;;;;;;15.00;13.47;;;27.20;46.40;;;;;;4976071;28;20485;-65
2021/04/28 08:43:23;;;;;;;13.67;12.37;;;27.10;45.90;;;;;;4977063;28;20529;-64
2021/04/28 08:45:49;;;;;;;14.97;13.57;;;27.30;46.50;;;;;;4976858;28;20450;-65
2021/04/28 08:48:16;;;;;;;14.37;12.80;;;26.90;46.70;;;;;;4977304;28;20463;-64
2021/04/28 08:50:43;;;;;;;13.50;12.27;;;27.00;46.90;;;;;;4976391;28;20475;-64
2021/04/28 08:53:12;;;;;;;17.20;14.60;;;27.50;46.40;;;;;;4976540;28;20518;-64
2021/04/28 08:55:38;;;;;;;19.10;13.50;;;27.30;46.40;;;;;;4976866;28;20455;-64
2021/04/28 08:58:05;;;;;;;15.27;13.73;;;27.60;45.20;;;;;;4976711;28;20508;-64
2021/04/28 09:00:31;;;;;;;14.70;13.20;;;28.40;45.70;;;;;;4976213;28;20509;-64
2021/04/28 09:03:00;;;;;;;14.93;13.43;;;28.50;45.10;;;;;;4976512;28;20442;-64
2021/04/28 09:05:27;;;;;;;16.70;13.20;;;28.30;45.80;;;;;;4959705;28;20820;-64
2021/04/28 09:07:54;;;;;;;15.10;13.53;;;28.80;45.50;;;;;;4976118;28;20462;-64
2021/04/28 09:10:22;;;;;;;15.77;14.13;;;29.20;44.40;;;;;;4976798;28;20455;-64
2021/04/28 09:12:54;;;;;;;14.40;13.10;;;29.40;46.70;;;;;;4977845;28;20459;-64
2021/04/28 09:15:36;;;;;;;16.00;14.10;;;29.80;44.00;;;;;;4976606;28;20509;-64
2021/04/28 09:18:03;;;;;;;14.60;13.10;;;30.60;43.50;;;;;;4975745;28;21000;-64
2021/04/28 09:20:32;;;;;;;15.83;14.00;;;30.00;44.00;;;;;;4989428;28;20458;-65
2021/04/28 09:23:07;;;;;;;15.63;14.03;;;30.70;44.80;;;;;;4995273;28;20447;-64
2021/04/28 09:25:41;;;;;;;15.63;13.67;;;30.40;42.40;;;;;;4995654;28;20484;-64
2021/04/28 09:28:28;;;;;;;14.93;13.63;;;30.70;45.00;;;;;;4987359;28;20522;-65
2021/04/28 09:31:15;;;;;;;20.43;13.83;;;30.60;42.80;;;;;;4979204;28;20489;-65
2021/04/28 09:33:49;;;;;;;16.00;14.37;;;30.90;41.50;;;;;;4977708;28;20910;-65
2021/04/28 09:36:23;;;;;;;16.70;15.30;;;31.20;40.10;;;;;;4977472;28;20461;-64
2021/04/28 09:38:49;;;;;;;14.30;13.10;;;31.10;42.10;;;;;;4977210;28;20446;-66
2021/04/28 09:41:31;;;;;;;14.50;13.10;;;31.30;38.80;;;;;;4976803;28;20479;-65
2021/04/28 09:43:57;;;;;;;14.10;12.60;;;31.40;38.90;;;;;;4976346;28;20496;-65
2021/04/28 09:46:23;;;;;;;15.37;13.80;;;31.60;39.90;;;;;;4976611;28;20454;-65
2021/04/28 09:48:58;;;;;;;14.50;13.10;;;32.20;37.70;;;;;;4976222;28;20490;-65
2021/04/28 09:51:32;;;;;;;15.97;14.47;;;32.00;37.70;;;;;;4984523;28;20477;-65
2021/04/28 09:54:12;;;;;;;14.33;13.03;;;32.10;38.50;;;;;;4979367;28;20431;-65
2021/04/28 09:56:40;;;;;;;12.90;11.77;;;32.20;37.60;;;;;;4976641;28;20520;-64
2021/04/28 09:59:06;;;;;;;12.27;11.17;;;31.40;34.50;;;;;;4976591;28;20517;-64
2021/04/28 10:01:34;;;;;;;13.83;12.53;;;31.60;37.40;;;;;;4976160;28;20493;-65
2021/04/28 10:04:01;;;;;;;12.43;11.13;;;31.70;33.00;;;;;;4976278;28;20469;-65
2021/04/28 10:06:41;;;;;;;11.97;10.70;;;31.00;34.10;;;;;;4976363;28;20459;-64
2021/04/28 10:09:23;;;;;;;12.83;11.63;;;31.50;36.50;;;;;;4982685;28;20435;-65
2021/04/28 10:11:50;;;;;;;12.10;11.10;;;31.90;35.80;;;;;;4995877;28;20474;-65
2021/04/28 10:14:16;;;;;;;11.77;10.57;;;32.20;32.70;;;;;;4977853;28;20458;-64
2021/04/28 10:16:45;;;;;;;11.50;10.43;;;31.70;32.40;;;;;;4975724;28;20474;-65
2021/04/28 10:19:11;;;;;;;12.60;11.40;;;31.70;33.60;;;;;;4975522;28;20457;-65
2021/04/28 10:21:39;;;;;;;11.23;9.87;;;31.50;32.50;;;;;;4975840;28;20486;-65
2021/04/28 10:24:06;;;;;;;13.63;11.67;;;31.10;32.30;;;;;;4977007;28;20964;-65
2021/04/28 10:26:33;;;;;;;12.20;10.77;;;31.50;33.10;;;;;;4975554;28;20454;-65
2021/04/28 10:29:02;;;;;;;11.83;10.63;;;32.10;36.60;;;;;;4975694;28;20946;-64
2021/04/28 10:31:29;;;;;;;12.10;11.10;;;30.80;33.30;;;;;;4975232;28;20485;-64
2021/04/28 10:33:57;;;;;;;12.20;10.43;;;30.80;31.30;;;;;;4977430;28;20470;-65
2021/04/28 10:36:24;;;;;;;11.43;9.97;;;30.20;31.70;;;;;;4993261;28;20477;-64
2021/04/28 10:38:50;;;;;;;11.10;10.00;;;30.30;34.10;;;;;;4994384;28;20430;-66
2021/04/28 10:41:37;;;;;;;11.93;10.80;;;30.20;34.10;;;;;;4987512;28;20474;-64
2021/04/28 10:44:05;;;;;;;13.80;12.57;;;30.30;36.20;;;;;;4978295;28;20540;-64
2021/04/28 10:46:31;;;;;;;12.33;11.03;;;30.70;34.80;;;;;;4976766;28;20450;-65
2021/04/28 10:48:57;;;;;;;10.17;9.17;;;30.90;36.30;;;;;;4977099;28;20482;-64
2021/04/28 10:51:35;;;;;;;10.80;9.77;;;31.30;32.60;;;;;;4976324;28;20533;-65
2021/04/28 10:54:24;;;;;;;13.00;11.27;;;31.70;34.00;;;;;;4976086;28;20469;-65
2021/04/28 10:57:01;;;;;;;11.97;11.03;;;31.40;36.40;;;;;;4975967;28;20474;-64
2021/04/28 10:59:33;;;;;;;11.97;10.87;;;31.40;32.20;;;;;;4976397;28;20465;-65
2021/04/28 11:02:07;;;;;;;12.67;11.33;;;31.40;33.20;;;;;;4975320;28;20492;-64
2021/04/28 11:04:34;;;;;;;12.80;11.60;;;31.50;33.70;;;;;;4977431;28;20454;-64
2021/04/28 11:07:00;;;;;;;12.33;11.13;;;31.70;33.60;;;;;;4978995;28;20483;-64
2021/04/28 11:09:27;;;;;;;11.07;10.17;;;31.70;33.20;;;;;;4979099;28;20512;-65
2021/04/28 11:12:01;;;;;;;12.00;11.00;;;31.10;35.90;;;;;;4978577;28;20478;-64
2021/04/28 11:14:31;;;;;;;13.03;11.50;;;31.00;37.00;;;;;;4981306;28;20450;-64
2021/04/28 11:17:01;;;;;;;15.67;13.50;;;31.00;33.30;;;;;;4979111;28;20470;-64
2021/04/28 11:19:29;;;;;;;13.60;12.40;;;30.90;33.80;;;;;;4979525;28;20840;-64
2021/04/28 11:22:22;;;;;;;13.40;12.00;;;30.40;33.00;;;;;;4978869;28;20485;-63
2021/04/28 11:25:01;;;;;;;14.03;12.60;;;29.70;33.70;;;;;;4984016;28;20435;-65
2021/04/28 11:27:55;;;;;;;11.87;10.73;;;29.20;34.70;;;;;;4983629;28;20537;-65
2021/04/28 11:30:33;;;;;;;12.47;10.97;;;28.80;34.20;;;;;;4979262;28;20443;-65
2021/04/28 11:33:12;;;;;;;11.93;10.83;;;28.50;34.80;;;;;;4980432;28;20443;-65
2021/04/28 11:35:40;;;;;;;17.03;11.03;;;28.50;35.30;;;;;;4979985;28;20456;-65
2021/04/28 11:38:09;;;;;;;13.70;12.40;;;28.20;36.20;;;;;;4990162;28;20469;-65
2021/04/28 11:40:51;;;;;;;13.73;12.33;;;28.00;35.00;;;;;;4984366;28;20478;-64
2021/04/28 11:43:19;;;;;;;13.63;12.23;;;27.80;36.40;;;;;;4978921;28;20461;-65
2021/04/28 11:45:45;;;;;;;15.47;13.30;;;27.50;36.30;;;;;;4978734;28;20822;-64
2021/04/28 11:48:21;;;;;;;12.70;11.60;;;27.20;36.10;;;;;;4979046;28;20451;-64
2021/04/28 11:50:54;;;;;;;12.73;11.60;;;27.30;37.00;;;;;;4979071;28;20531;-64
2021/04/28 11:53:21;;;;;;;13.67;12.20;;;27.40;38.40;;;;;;4978951;28;20443;-64
2021/04/28 11:55:48;;;;;;;12.30;11.13;;;27.40;36.90;;;;;;4978674;28;20450;-65
2021/04/28 11:58:26;;;;;;;13.70;11.83;;;27.50;37.90;;;;;;4978371;28;20471;-65
2021/04/28 12:01:05;;;;;;;12.60;11.40;;;27.40;35.50;;;;;;4989755;28;20482;-65
2021/04/28 12:03:53;;;;;;;13.07;11.77;;;27.30;36.40;;;;;;4980488;28;20449;-65
2021/04/28 12:06:32;;;;;;;12.33;11.13;;;27.40;35.20;;;;;;4990928;28;20458;-65
2021/04/28 12:09:31;;;;;;;10.97;9.97;;;26.90;38.70;;;;;;4993813;28;20909;-64
2021/04/28 12:12:16;;;;;;;16.00;11.40;;;27.10;37.20;;;;;;4980212;28;20963;-65
2021/04/28 12:14:44;;;;;;;10.83;9.70;;;26.80;38.90;;;;;;4979781;28;20435;-65
2021/04/28 12:17:10;;;;;;;13.57;10.67;;;27.30;39.50;;;;;;4978068;28;21011;-64
2021/04/28 12:19:38;;;;;;;11.27;10.20;;;27.10;35.90;;;;;;4978063;28;20955;-65
2021/04/28 12:22:06;;;;;;;11.30;10.30;;;27.00;43.00;;;;;;4978131;28;20474;-65
2021/04/28 12:24:34;;;;;;;10.90;9.90;;;27.20;40.50;;;;;;4978174;28;20537;-64
2021/04/28 12:27:05;;;;;;;11.90;10.63;;;27.30;37.90;;;;;;4977333;28;20454;-65
2021/04/28 12:29:31;;;;;;;16.07;10.50;;;27.20;35.90;;;;;;4979417;28;20455;-64
2021/04/28 12:31:57;;;;;;;10.90;9.90;;;26.90;35.90;;;;;;4977439;28;20470;-65
2021/04/28 12:34:23;;;;;;;10.53;9.40;;;26.70;34.80;;;;;;4977595;28;20513;-64
2021/04/28 12:36:50;;;;;;;11.90;10.80;;;26.40;34.80;;;;;;4977564;28;20443;-65
2021/04/28 12:39:27;;;;;;;15.40;10.20;;;26.40;36.90;;;;;;4978239;28;20459;-65
2021/04/28 12:41:54;;;;;;;12.40;11.10;;;26.40;37.20;;;;;;4976714;28;20478;-63
2021/04/28 12:44:22;;;;;;;12.40;10.43;;;26.30;38.80;;;;;;4976743;28;20455;-64
2021/04/28 12:46:50;;;;;;;11.13;9.93;;;26.30;38.90;;;;;;4976831;28;20817;-62
2021/04/28 12:49:18;;;;;;;11.33;10.23;;;26.60;40.30;;;;;;4976674;28;20459;-63
2021/04/28 12:51:45;;;;;;;13.33;11.37;;;26.70;40.60;;;;;;4976641;28;20479;-63
2021/04/28 12:54:13;;;;;;;12.60;11.30;;;26.60;39.80;;;;;;4976116;28;21021;-63
2021/04/28 12:56:41;;;;;;;12.87;11.30;;;26.10;40.80;;;;;;4987015;28;20553;-63
2021/04/28 12:59:17;;;;;;;13.20;10.70;;;26.10;40.60;;;;;;4986261;28;20957;-64
2021/04/28 13:01:54;;;;;;;11.50;10.40;;;26.40;42.00;;;;;;4981313;28;20489;-63
2021/04/28 13:04:20;;;;;;;12.07;10.53;;;26.00;39.50;;;;;;4977995;28;20442;-64
2021/04/28 13:06:47;;;;;;;11.63;9.57;;;26.00;39.50;;;;;;4977150;28;20439;-64
2021/04/28 13:09:15;;;;;;;11.20;10.20;;;26.10;40.90;;;;;;4976946;28;20466;-63
2021/04/28 13:11:42;;;;;;;13.53;10.60;;;26.00;40.10;;;;;;4976100;28;20485;-63
2021/04/28 13:14:14;;;;;;;18.53;10.23;;;25.40;39.40;;;;;;4976168;28;20439;-63
2021/04/28 13:16:42;;;;;;;11.20;9.63;;;24.90;39.50;;;;;;4975602;28;20446;-63
2021/04/28 13:19:10;;;;;;;12.03;10.93;;;24.80;40.00;;;;;;4976073;28;20454;-63
2021/04/28 13:21:38;;;;;;;11.27;10.17;;;24.60;40.70;;;;;;4975536;28;21023;-63
2021/04/28 13:24:21;;;;;;;10.70;9.70;;;24.40;43.70;;;;;;4975861;28;20455;-63
2021/04/28 13:27:01;;;;;;;14.90;11.70;;;24.60;43.70;;;;;;4982025;28;20446;-63
2021/04/28 13:29:27;;;;;;;10.03;9.10;;;24.30;40.10;;;;;;4976224;28;20449;-64
2021/04/28 13:31:54;;;;;;;11.80;10.33;;;24.40;43.30;;;;;;4975918;28;20483;-63
2021/04/28 13:34:27;;;;;;;11.80;9.77;;;24.70;40.60;;;;;;4975834;28;20446;-63
2021/04/28 13:36:54;;;;;;;13.67;10.60;;;24.90;39.60;;;;;;4975688;28;20465;-63
2021/04/28 13:39:31;;;;;;;13.20;9.90;;;24.80;40.50;;;;;;4975903;28;20461;-63
2021/04/28 13:42:00;;;;;;;12.43;9.83;;;25.00;42.10;;;;;;4975487;28;20496;-63
2021/04/28 13:44:28;;;;;;;12.00;8.90;;;25.30;38.90;;;;;;4975714;28;20821;-63
2021/04/28 13:46:55;;;;;;;13.07;9.70;;;25.40;44.60;;;;;;4983697;28;20461;-63
2021/04/28 13:49:22;;;;;;;10.97;9.87;;;25.70;40.40;;;;;;4996371;28;20526;-64
2021/04/28 13:51:52;;;;;;;15.70;9.00;;;26.30;42.10;;;;;;4975571;28;20485;-64
2021/04/28 13:54:18;;;;;;;11.93;9.57;;;26.60;42.10;;;;;;4975582;28;20538;-64
2021/04/28 13:56:46;;;;;;;9.47;8.43;;;26.90;39.70;;;;;;4975139;28;20941;-64
2021/04/28 13:59:12;;;;;;;10.20;9.20;;;27.10;39.50;;;;;;4975411;28;20458;-64
2021/04/28 14:01:38;;;;;;;9.10;8.10;;;27.00;39.60;;;;;;4974975;28;20502;-64
2021/04/28 14:04:04;;;;;;;10.17;9.27;;;26.80;37.20;;;;;;4975243;28;20451;-64
2021/04/28 14:06:31;;;;;;;9.50;8.60;;;26.70;39.20;;;;;;4975136;28;20865;-63
2021/04/28 14:08:57;;;;;;;11.23;9.20;;;26.60;39.20;;;;;;4975126;28;20455;-64
2021/04/28 14:11:23;;;;;;;9.60;8.33;;;26.60;38.30;;;;;;4974749;28;20479;-64
2021/04/28 14:13:50;;;;;;;8.90;8.10;;;26.40;37.70;;;;;;4975080;28;20497;-64
2021/04/28 14:16:17;;;;;;;9.07;8.20;;;26.30;39.70;;;;;;4975297;28;20455;-63
2021/04/28 14:18:46;;;;;;;10.90;6.90;;;26.20;42.70;;;;;;4974989;28;20482;-63
2021/04/28 14:21:12;;;;;;;14.60;7.80;;;25.70;37.90;;;;;;4975532;28;20517;-63
2021/04/28 14:23:38;;;;;;;9.47;8.60;;;25.70;37.90;;;;;;4974874;28;20970;-62
2021/04/28 14:26:05;;;;;;;9.03;7.50;;;25.40;37.90;;;;;;4975076;28;20946;-63
2021/04/28 14:28:32;;;;;;;11.73;9.27;;;25.30;38.00;;;;;;4975955;28;20505;-62
2021/04/28 14:30:59;;;;;;;8.23;7.20;;;25.30;39.00;;;;;;4985607;28;20499;-63
2021/04/28 14:33:25;;;;;;;9.00;6.30;;;25.40;38.20;;;;;;4980325;28;20490;-62
2021/04/28 14:35:52;;;;;;;9.30;7.00;;;25.20;39.80;;;;;;4975348;28;20459;-62
2021/04/28 14:38:18;;;;;;;7.10;6.60;;;25.20;40.20;;;;;;4974847;28;20551;-62
2021/04/28 14:40:45;;;;;;;9.03;7.70;;;25.40;40.10;;;;;;4978062;28;20478;-64
2021/04/28 14:43:11;;;;;;;10.00;7.40;;;25.70;39.50;;;;;;4978302;28;20462;-64
2021/04/28 14:45:38;;;;;;;9.53;7.57;;;25.60;37.80;;;;;;4979390;28;20450;-63
2021/04/28 14:48:06;;;;;;;8.83;7.43;;;25.70;39.30;;;;;;4978312;28;21044;-62
2021/04/28 14:50:32;;;;;;;12.00;8.07;;;25.70;38.60;;;;;;4978734;28;20461;-63
2021/04/28 14:52:59;;;;;;;10.70;8.10;;;25.50;37.90;;;;;;4978585;28;20529;-62
2021/04/28 14:55:25;;;;;;;8.50;7.70;;;25.40;38.00;;;;;;4978990;28;20458;-62
2021/04/28 14:57:52;;;;;;;11.87;8.10;;;25.30;38.90;;;;;;4978351;28;20478;-62
2021/04/28 15:00:19;;;;;;;8.57;7.77;;;25.20;39.70;;;;;;4977863;28;20454;-63
2021/04/28 15:02:45;;;;;;;7.57;6.87;;;25.20;39.20;;;;;;4978172;28;20438;-62
2021/04/28 15:05:14;;;;;;;7.53;6.73;;;25.00;38.90;;;;;;4977743;28;21007;-62
2021/04/28 15:07:40;;;;;;;7.53;6.83;;;24.70;39.50;;;;;;4979809;28;20453;-62
2021/04/28 15:10:08;;;;;;;12.87;7.63;;;24.70;40.30;;;;;;4979923;28;20458;-63
2021/04/28 15:12:34;;;;;;;7.13;6.60;;;24.70;40.20;;;;;;4980444;28;20478;-63
2021/04/28 15:15:01;;;;;;;7.93;7.23;;;24.70;40.50;;;;;;4979083;28;20495;-62
2021/04/28 15:17:27;;;;;;;8.00;7.30;;;24.60;40.70;;;;;;4977978;28;20551;-62
2021/04/28 15:19:53;;;;;;;8.37;6.83;;;24.60;40.80;;;;;;4977847;28;20470;-63
2021/04/28 15:22:20;;;;;;;10.47;7.00;;;24.10;40.20;;;;;;4977837;28;20478;-64
2021/04/28 15:24:47;;;;;;;8.27;7.47;;;24.10;41.10;;;;;;4977742;28;20462;-64
2021/04/28 15:27:13;;;;;;;12.30;8.97;;;24.10;44.20;;;;;;4977550;28;20450;-63
2021/04/28 15:29:40;;;;;;;9.40;8.20;;;23.90;44.30;;;;;;4989556;28;20458;-64
2021/04/28 15:32:07;;;;;;;8.73;7.83;;;23.70;45.00;;;;;;4984668;28;20474;-63
2021/04/28 15:34:33;;;;;;;9.63;8.63;;;23.70;45.20;;;;;;4977482;28;20458;-63
2021/04/28 15:37:00;;;;;;;8.57;7.60;;;23.70;45.70;;;;;;4977557;28;20502;-63
2021/04/28 15:39:27;;;;;;;10.37;8.07;;;23.60;46.40;;;;;;4977346;28;20455;-64
2021/04/28 15:41:54;;;;;;;11.77;9.07;;;23.70;45.80;;;;;;4977365;28;20474;-64
2021/04/28 15:44:20;;;;;;;8.80;7.70;;;23.70;44.30;;;;;;4978372;28;20477;-64
2021/04/28 15:46:46;;;;;;;10.57;7.50;;;23.70;45.50;;;;;;4977948;28;20819;-64
2021/04/28 15:49:13;;;;;;;10.30;7.33;;;23.70;44.20;;;;;;4977329;28;20447;-64
2021/04/28 15:51:39;;;;;;;8.10;7.40;;;23.50;46.70;;;;;;4976511;28;20803;-64
2021/04/28 15:54:05;;;;;;;9.80;7.10;;;23.50;45.40;;;;;;4977603;28;20459;-64
2021/04/28 15:56:33;;;;;;;10.23;7.63;;;23.50;46.30;;;;;;4991105;28;20756;-64
2021/04/28 15:58:59;;;;;;;9.20;7.30;;;23.40;45.70;;;;;;4980365;28;20889;-64
2021/04/28 16:01:25;;;;;;;7.90;7.20;;;23.20;45.50;;;;;;4977513;28;20796;-64
2021/04/28 16:03:52;;;;;;;9.77;7.50;;;23.20;46.70;;;;;;4986198;28;20462;-64
2021/04/28 16:06:19;;;;;;;11.63;7.40;;;23.10;47.10;;;;;;4990077;28;20461;-63
2021/04/28 16:08:45;;;;;;;10.53;7.83;;;23.20;46.60;;;;;;4977916;28;20473;-65
2021/04/28 16:11:11;;;;;;;7.60;6.63;;;23.00;47.20;;;;;;4977205;28;20471;-64
2021/04/28 16:13:38;;;;;;;12.30;7.70;;;23.10;47.60;;;;;;4977329;28;20455;-67
2021/04/28 16:16:05;;;;;;;10.20;7.00;;;23.10;47.50;;;;;;4977039;28;20799;-66
2021/04/28 16:18:31;;;;;;;9.70;6.70;;;23.20;47.30;;;;;;4976883;28;20478;-66
2021/04/28 16:20:58;;;;;;;12.60;5.90;;;23.20;47.20;;;;;;4976950;28;20474;-64
2021/04/28 16:23:24;;;;;;;7.27;6.60;;;23.30;47.90;;;;;;4981814;28;20461;-64
2021/04/28 16:25:52;;;;;;;8.43;6.30;;;23.30;47.40;;;;;;4983668;28;20530;-63
2021/04/28 16:28:19;;;;;;;9.10;6.50;;;23.30;48.50;;;;;;4981984;28;20459;-65
2021/04/28 16:30:46;;;;;;;10.13;7.57;;;23.30;48.10;;;;;;4979008;28;20530;-65
2021/04/28 16:33:13;;;;;;;10.03;7.37;;;23.40;47.10;;;;;;4980406;28;20459;-66
2021/04/28 16:35:39;;;;;;;9.27;7.40;;;23.40;47.70;;;;;;4978022;28;20461;-65
2021/04/28 16:38:05;;;;;;;7.93;6.03;;;23.30;46.70;;;;;;4977705;28;20482;-66
2021/04/28 16:40:31;;;;;;;7.40;6.50;;;23.30;48.30;;;;;;4987519;28;20462;-69